Time;durP1;ratioP1;P1;durP2;ratioP2;P2;SDS_P1;SDS_P2;PMS_P1;PMS_P2;Temp;Humidity;BMP_temperature;BMP_pressure;BME280_temperature;BME280_humidity;BME280_pressure;Samples;Min_cycle;Max_cycle;Signal;HPM_P1;HPM_P2
2024/02/27 00:01:29;;;;;;;34.80;19.30;;;;;;;6.69;85.41;99236.41;218083;1256;140037;-76
2024/02/27 00:06:34;;;;;;;26.50;17.50;;;;;;;6.56;84.97;99236.20;218009;1257;139723;-75
2024/02/27 00:11:40;;;;;;;34.30;20.90;;;;;;;6.42;84.49;99243.71;217492;1258;139858;-73
2024/02/27 00:16:44;;;;;;;31.90;19.00;;;;;;;6.33;84.90;99248.45;217756;1255;139913;-73
2024/02/27 00:21:49;;;;;;;32.90;19.80;;;;;;;6.26;85.10;99255.64;217886;1258;141157;-73
2024/02/27 00:26:53;;;;;;;35.70;22.10;;;;;;;6.18;85.25;99259.61;218246;1258;140284;-72
2024/02/27 00:31:58;;;;;;;26.40;17.80;;;;;;;6.15;85.25;99261.84;217543;1255;141241;-75
2024/02/27 00:37:01;;;;;;;30.00;19.60;;;;;;;6.07;84.83;99262.83;217458;1256;141061;-73
2024/02/27 00:42:06;;;;;;;32.00;19.60;;;;;;;5.95;84.68;99258.41;218187;1255;139680;-76
2024/02/27 00:47:10;;;;;;;33.60;18.30;;;;;;;5.85;84.53;99261.02;218326;1258;139929;-72
2024/02/27 00:52:16;;;;;;;35.70;19.50;;;;;;;5.79;85.20;99267.70;217295;1259;140347;-72
2024/02/27 00:57:20;;;;;;;30.20;17.60;;;;;;;5.67;84.21;99264.00;220455;1256;139978;-74
2024/02/27 01:02:25;;;;;;;32.60;20.70;;;;;;;5.61;85.50;99267.45;217881;1259;141123;-73
2024/02/27 01:07:30;;;;;;;34.60;20.60;;;;;;;5.60;86.01;99272.91;218032;1259;159907;-73
2024/02/27 01:12:35;;;;;;;31.10;19.40;;;;;;;5.60;86.47;99278.36;217540;1255;139647;-74
2024/02/27 01:17:40;;;;;;;28.40;19.80;;;;;;;5.60;86.02;99286.50;218349;1255;140349;-74
2024/02/27 01:22:44;;;;;;;29.90;19.80;;;;;;;5.61;86.49;99286.48;219012;1256;139963;-74
2024/02/27 01:27:48;;;;;;;30.80;20.00;;;;;;;5.65;86.80;99285.98;218359;1256;139900;-73
2024/02/27 01:32:52;;;;;;;31.40;18.90;;;;;;;5.65;86.56;99290.21;217749;1259;140546;-73
2024/02/27 01:37:57;;;;;;;31.90;19.70;;;;;;;5.66;87.43;99289.72;217581;1256;140835;-74
2024/02/27 01:43:02;;;;;;;32.70;18.00;;;;;;;5.73;88.51;99292.85;217677;1259;140317;-73
2024/02/27 01:48:07;;;;;;;38.70;23.10;;;;;;;5.83;88.60;99290.41;218012;1256;140234;-74
2024/02/27 01:53:13;;;;;;;32.30;20.70;;;;;;;5.94;89.33;99292.56;217663;1256;141113;-75
2024/02/27 01:58:17;;;;;;;32.10;19.40;;;;;;;6.02;88.91;99297.10;217646;1256;140417;-74
2024/02/27 02:03:23;;;;;;;34.50;21.30;;;;;;;6.10;89.46;99296.15;217650;1256;140040;-74
2024/02/27 02:08:28;;;;;;;35.10;23.20;;;;;;;6.18;89.93;99296.46;217671;1257;139342;-74
2024/02/27 02:13:33;;;;;;;30.60;20.50;;;;;;;6.26;90.29;99296.85;217968;1256;140603;-75
2024/02/27 02:18:37;;;;;;;36.20;19.90;;;;;;;6.28;89.85;99295.34;218031;1256;141471;-78
2024/02/27 02:23:44;;;;;;;32.60;21.40;;;;;;;6.29;90.01;99298.49;217350;1256;141034;-74
2024/02/27 02:28:49;;;;;;;31.00;22.10;;;;;;;6.32;90.18;99306.83;218502;1256;142360;-74
2024/02/27 02:33:53;;;;;;;31.40;19.70;;;;;;;6.37;90.12;99305.23;217795;1256;140045;-75
2024/02/27 02:38:58;;;;;;;33.50;21.80;;;;;;;6.41;90.50;99302.38;217448;1259;139997;-75
2024/02/27 02:44:03;;;;;;;26.40;17.80;;;;;;;6.42;90.50;99306.38;220161;1255;140751;-75
2024/02/27 02:49:07;;;;;;;32.80;20.70;;;;;;;6.42;90.13;99306.05;217948;1255;140624;-74
2024/02/27 02:54:11;;;;;;;34.00;21.40;;;;;;;6.43;90.38;99310.82;219524;1255;140513;-73
2024/02/27 02:59:15;;;;;;;36.40;22.00;;;;;;;6.42;90.52;99309.77;220281;1255;140622;-74
2024/02/27 03:04:19;;;;;;;32.50;20.20;;;;;;;6.41;90.23;99315.89;219077;1255;140250;-73
2024/02/27 03:09:24;;;;;;;31.50;20.00;;;;;;;6.40;90.49;99318.73;217489;1258;140198;-73
2024/02/27 03:14:29;;;;;;;33.30;22.30;;;;;;;6.41;90.50;99330.48;217540;1259;140588;-75
2024/02/27 03:19:33;;;;;;;37.70;24.20;;;;;;;6.42;90.69;99327.92;217573;1258;141293;-72
2024/02/27 03:24:43;;;;;;;37.20;21.60;;;;;;;6.46;91.25;99325.38;217404;1255;140093;-72
2024/02/27 03:29:47;;;;;;;38.70;25.10;;;;;;;6.48;91.05;99334.61;217496;1256;140443;-74
2024/02/27 03:34:51;;;;;;;39.90;26.10;;;;;;;6.50;91.08;99344.08;217534;1255;140784;-73
2024/02/27 03:39:56;;;;;;;45.80;26.40;;;;;;;6.51;91.30;99347.66;217397;1256;139769;-77
2024/02/27 03:45:00;;;;;;;40.80;23.90;;;;;;;6.51;91.09;99351.11;218032;1255;140127;-75
2024/02/27 03:50:05;;;;;;;30.70;21.50;;;;;;;6.50;90.77;99350.23;217852;1256;141041;-72
2024/02/27 03:55:10;;;;;;;39.10;24.80;;;;;;;6.48;91.06;99347.20;217292;1259;140502;-73
2024/02/27 04:00:14;;;;;;;46.60;30.00;;;;;;;6.45;91.00;99347.70;217609;1256;141418;-74
2024/02/27 04:05:19;;;;;;;33.80;21.50;;;;;;;6.41;90.98;99346.48;217474;1258;140857;-73
2024/02/27 04:10:23;;;;;;;39.70;25.40;;;;;;;6.35;90.68;99345.16;217696;1258;140213;-72
2024/02/27 04:15:28;;;;;;;42.50;27.50;;;;;;;6.26;90.66;99348.40;217380;1258;140037;-73
2024/02/27 04:20:32;;;;;;;43.70;26.60;;;;;;;6.24;90.64;99353.18;217901;1258;140031;-75
2024/02/27 04:25:37;;;;;;;34.90;22.30;;;;;;;6.24;90.77;99354.98;217487;1255;140208;-74
2024/02/27 04:30:42;;;;;;;41.80;25.40;;;;;;;6.20;90.72;99361.04;218030;1256;140522;-74
2024/02/27 04:35:47;;;;;;;32.80;21.10;;;;;;;6.20;91.47;99366.77;217225;1256;140221;-72
2024/02/27 04:40:51;;;;;;;34.70;23.50;;;;;;;6.20;90.88;99362.90;218400;1256;139658;-73
2024/02/27 04:45:55;;;;;;;35.80;23.00;;;;;;;6.18;91.50;99361.58;217779;1256;139592;-72
2024/02/27 04:50:59;;;;;;;37.50;27.20;;;;;;;6.23;91.69;99360.77;220579;1255;140746;-73
2024/02/27 04:56:04;;;;;;;45.40;25.10;;;;;;;6.25;91.59;99367.52;220523;1256;140244;-73
2024/02/27 05:01:13;;;;;;;35.20;22.70;;;;;;;6.29;91.77;99372.08;220295;1257;141689;-73
2024/02/27 05:06:18;;;;;;;40.60;23.80;;;;;;;6.36;91.60;99376.77;220359;1256;141433;-73
2024/02/27 05:11:22;;;;;;;47.50;26.50;;;;;;;6.44;91.66;99379.48;218753;1256;140500;-73
2024/02/27 05:16:29;;;;;;;36.10;24.30;;;;;;;6.50;91.99;99384.24;217294;1258;140804;-73
2024/02/27 05:21:33;;;;;;;32.00;21.90;;;;;;;6.55;92.16;99389.46;217189;1258;139615;-73
2024/02/27 05:26:37;;;;;;;39.90;27.40;;;;;;;6.56;92.10;99393.29;217502;1256;140497;-72
2024/02/27 05:31:42;;;;;;;62.80;37.70;;;;;;;6.57;91.79;99394.05;217213;1259;140473;-72
2024/02/27 05:36:46;;;;;;;56.00;38.50;;;;;;;6.58;92.27;99395.55;217226;1256;140106;-72
2024/02/27 05:41:51;;;;;;;52.00;34.70;;;;;;;6.60;92.34;99396.48;217198;1256;140698;-74
2024/02/27 05:46:55;;;;;;;41.20;26.40;;;;;;;6.63;92.29;99399.91;217117;1259;141043;-73
2024/02/27 05:52:00;;;;;;;40.60;27.20;;;;;;;6.65;91.94;99403.85;217235;1256;139698;-74
2024/02/27 05:57:05;;;;;;;34.80;23.60;;;;;;;6.68;92.04;99410.79;217375;1256;140655;-76
2024/02/27 06:02:10;;;;;;;40.90;24.40;;;;;;;6.72;91.85;99414.82;217470;1259;139778;-74
2024/02/27 06:07:14;;;;;;;42.20;25.80;;;;;;;6.76;92.28;99415.47;217343;1258;141565;-74
2024/02/27 06:12:19;;;;;;;37.50;24.50;;;;;;;6.83;92.32;99416.89;217360;1256;140956;-76
2024/02/27 06:17:24;;;;;;;32.80;20.50;;;;;;;6.90;92.06;99418.45;218749;1256;141638;-74
2024/02/27 06:22:31;;;;;;;38.20;26.20;;;;;;;6.98;91.63;99416.80;217948;1256;140109;-74
2024/02/27 06:27:35;;;;;;;42.30;25.40;;;;;;;7.06;91.67;99424.85;217340;1255;140894;-75
2024/02/27 06:32:40;;;;;;;35.50;23.20;;;;;;;7.17;91.82;99431.88;217553;1259;140142;-75
2024/02/27 06:37:45;;;;;;;35.90;22.70;;;;;;;7.28;91.73;99434.39;217239;1257;141865;-76
2024/02/27 06:42:49;;;;;;;43.20;26.40;;;;;;;7.37;91.48;99433.98;217301;1256;139838;-75
2024/02/27 06:47:54;;;;;;;40.70;25.30;;;;;;;7.46;91.36;99430.16;217298;1257;139926;-76
2024/02/27 06:52:59;;;;;;;40.70;25.70;;;;;;;7.55;91.29;99434.52;217237;1257;140190;-75
2024/02/27 06:58:04;;;;;;;38.30;23.60;;;;;;;7.60;91.05;99438.27;217112;1259;140199;-74
2024/02/27 07:03:08;;;;;;;34.80;21.70;;;;;;;7.72;91.25;99443.33;217259;1259;140126;-72
2024/02/27 07:08:13;;;;;;;44.90;23.50;;;;;;;7.93;91.53;99449.19;217405;1256;140098;-73
2024/02/27 07:13:18;;;;;;;38.70;21.40;;;;;;;8.17;91.66;99454.46;218659;1256;140044;-74
2024/02/27 07:18:23;;;;;;;36.70;22.40;;;;;;;8.41;91.33;99460.91;217124;1259;141068;-74
2024/02/27 07:23:29;;;;;;;42.60;25.10;;;;;;;8.73;91.07;99461.11;217520;1256;151173;-73
2024/02/27 07:28:33;;;;;;;37.90;23.60;;;;;;;8.86;90.38;99461.90;217172;1258;139892;-75
2024/02/27 07:33:38;;;;;;;31.00;23.30;;;;;;;8.97;89.96;99456.83;216817;1256;609493;-76
2024/02/27 07:38:42;;;;;;;34.00;24.50;;;;;;;9.42;90.69;99461.06;217398;1256;140444;-75
2024/02/27 07:43:46;;;;;;;36.00;24.70;;;;;;;10.48;91.35;99457.01;217172;1258;140108;-77
2024/02/27 07:48:50;;;;;;;34.50;22.80;;;;;;;11.33;90.07;99462.11;217122;1257;140290;-75
2024/02/27 07:53:55;;;;;;;33.50;23.50;;;;;;;11.78;88.63;99465.81;217457;1258;140707;-75
2024/02/27 07:58:59;;;;;;;32.50;24.10;;;;;;;12.13;87.83;99468.78;217946;1256;140737;-78
2024/02/27 08:04:04;;;;;;;33.30;23.80;;;;;;;12.52;87.42;99474.29;217326;1258;141014;-77
2024/02/27 08:09:09;;;;;;;32.40;22.80;;;;;;;12.84;87.15;99478.63;217147;1257;141145;-77
2024/02/27 08:14:13;;;;;;;36.70;24.80;;;;;;;13.04;85.64;99476.44;217458;1258;141730;-77
2024/02/27 08:19:17;;;;;;;33.20;24.30;;;;;;;13.02;84.44;99472.89;219320;1257;140211;-77
2024/02/27 08:24:22;;;;;;;29.50;21.60;;;;;;;13.07;84.12;99476.77;217363;1257;142285;-76
2024/02/27 08:29:26;;;;;;;30.00;20.20;;;;;;;13.12;83.60;99467.61;217901;1260;141985;-76
2024/02/27 08:34:30;;;;;;;29.50;20.40;;;;;;;13.36;83.83;99456.38;220349;1254;141819;-76
2024/02/27 08:39:34;;;;;;;28.00;21.00;;;;;;;13.56;82.93;99461.71;218050;1257;140424;-75
2024/02/27 08:44:40;;;;;;;30.80;19.70;;;;;;;13.61;82.08;99465.92;219683;1257;141116;-75
2024/02/27 08:49:46;;;;;;;;;;;;;;;13.73;81.57;99470.11;217296;1260;140968;-76
2024/02/27 08:54:50;;;;;;;21.80;15.60;;;;;;;13.84;81.26;99471.64;217413;1260;126798;-76
2024/02/27 08:59:54;;;;;;;31.10;18.30;;;;;;;13.83;80.32;99482.02;217192;1260;140603;-77
2024/02/27 09:04:58;;;;;;;24.20;18.00;;;;;;;13.78;79.88;99492.40;217170;1260;143442;-76
2024/02/27 09:10:02;;;;;;;26.70;17.50;;;;;;;13.81;79.48;99496.80;217179;1260;140759;-78
2024/02/27 09:15:06;;;;;;;28.30;18.70;;;;;;;14.02;80.06;99501.13;217148;1261;141246;-77
2024/02/27 09:20:12;;;;;;;21.30;14.80;;;;;;;14.26;79.79;99507.31;217453;1257;223590;-78
2024/02/27 09:25:16;;;;;;;20.30;15.10;;;;;;;14.48;79.30;99509.64;216989;1257;141819;-79
2024/02/27 09:30:20;;;;;;;20.20;15.70;;;;;;;14.69;78.64;99515.95;217514;1257;140663;-78
2024/02/27 09:35:24;;;;;;;22.20;15.00;;;;;;;14.88;78.14;99519.04;217488;1257;141056;-78
2024/02/27 09:40:28;;;;;;;20.40;14.80;;;;;;;15.07;77.48;99521.77;217514;1258;141177;-76
2024/02/27 09:45:32;;;;;;;21.10;13.30;;;;;;;15.21;76.72;99520.48;217270;1260;140893;-77
2024/02/27 09:50:37;;;;;;;13.00;10.60;;;;;;;15.42;76.19;99526.40;217548;1258;140639;-77
2024/02/27 09:55:41;;;;;;;18.00;12.80;;;;;;;15.66;75.51;99534.39;217395;1259;141347;-76
2024/02/27 10:00:44;;;;;;;17.10;12.50;;;;;;;15.74;74.41;99540.55;217503;1257;140405;-76
2024/02/27 10:05:49;;;;;;;15.30;11.20;;;;;;;15.77;73.85;99539.90;218324;1260;141310;-76
2024/02/27 10:10:54;;;;;;;11.60;9.60;;;;;;;15.82;73.52;99544.17;217717;1258;141714;-74
2024/02/27 10:15:59;;;;;;;12.20;10.50;;;;;;;16.02;72.91;99539.38;217611;1260;142034;-74
2024/02/27 10:21:04;;;;;;;18.20;11.40;;;;;;;16.05;72.40;99542.10;217641;1258;234871;-75
2024/02/27 10:26:10;;;;;;;12.30;11.00;;;;;;;16.20;72.00;99540.96;217653;1258;141158;-76
2024/02/27 10:31:14;;;;;;;18.60;11.90;;;;;;;16.26;71.37;99538.29;217253;1258;140022;-75
2024/02/27 10:36:19;;;;;;;12.70;10.20;;;;;;;16.37;71.00;99538.46;219454;1255;140766;-76
2024/02/27 10:41:25;;;;;;;17.50;11.60;;;;;;;16.50;70.40;99535.64;217982;1257;139952;-75
2024/02/27 10:46:29;;;;;;;15.70;11.40;;;;;;;16.42;69.82;99539.35;217686;1260;140384;-76
2024/02/27 10:51:36;;;;;;;13.90;10.90;;;;;;;16.12;69.03;99541.48;217406;1257;140368;-77
2024/02/27 10:56:42;;;;;;;12.10;9.90;;;;;;;15.82;69.10;99544.29;217517;1260;139914;-76
2024/02/27 11:01:46;;;;;;;12.10;9.10;;;;;;;15.58;68.86;99544.59;217592;1260;140612;-76
2024/02/27 11:06:54;;;;;;;16.60;11.00;;;;;;;15.32;68.85;99551.77;217695;1258;140279;-74
2024/02/27 11:12:09;;;;;;;13.10;9.30;;;;;;;15.25;69.03;99550.17;217742;1256;140918;-75
2024/02/27 11:17:21;;;;;;;15.80;10.30;;;;;;;15.20;69.07;99548.79;217622;1256;140755;-75
2024/02/27 11:22:26;;;;;;;13.30;9.70;;;;;;;15.30;69.31;99548.77;217642;1257;139697;-75
2024/02/27 11:27:30;;;;;;;13.90;10.60;;;;;;;15.45;69.07;99545.52;217075;1260;140392;-76
2024/02/27 11:32:36;;;;;;;18.50;12.10;;;;;;;15.48;68.87;99544.12;217262;1260;141037;-76
2024/02/27 11:37:41;;;;;;;18.80;11.40;;;;;;;15.52;68.58;99546.32;217401;1258;141763;-77
2024/02/27 11:42:47;;;;;;;18.80;13.30;;;;;;;15.46;68.36;99543.91;217447;1260;139953;-76
2024/02/27 11:47:54;;;;;;;17.20;11.80;;;;;;;15.44;68.39;99539.13;218173;1257;140660;-76
2024/02/27 11:53:16;;;;;;;17.70;12.00;;;;;;;15.47;68.12;99541.33;217593;1260;139237;-75
2024/02/27 11:58:21;;;;;;;14.00;10.20;;;;;;;15.54;67.86;99543.36;217422;1256;139112;-76
2024/02/27 12:03:25;;;;;;;14.50;11.60;;;;;;;15.59;67.61;99543.86;217429;1260;141227;-76
2024/02/27 12:08:31;;;;;;;13.50;9.50;;;;;;;15.75;67.57;99545.71;217272;1257;141885;-75
2024/02/27 12:13:35;;;;;;;17.20;11.50;;;;;;;16.04;67.44;99546.63;218576;1256;139981;-77
2024/02/27 12:18:39;;;;;;;14.20;11.40;;;;;;;16.30;67.19;99543.49;220208;1255;141656;-76
2024/02/27 12:23:51;;;;;;;12.90;11.30;;;;;;;16.36;66.38;99542.17;218111;1256;140417;-79
2024/02/27 12:29:18;;;;;;;11.70;10.20;;;;;;;16.49;65.99;99541.19;218321;1256;139853;-74
2024/02/27 12:34:46;;;;;;;14.00;10.20;;;;;;;16.53;65.36;99541.37;220356;1254;142616;-77
2024/02/27 12:39:55;;;;;;;12.70;9.20;;;;;;;16.56;65.39;99538.50;217676;1260;139695;-80
2024/02/27 12:44:59;;;;;;;12.00;9.80;;;;;;;16.69;65.46;99536.47;218148;1256;139868;-77
2024/02/27 12:50:05;;;;;;;16.30;10.60;;;;;;;16.81;64.97;99538.14;217989;1255;234319;-79
2024/02/27 12:55:12;;;;;;;;;;;;;;;16.82;64.83;99534.27;217837;1257;140108;-78
2024/02/27 13:00:24;;;;;;;15.10;9.20;;;;;;;16.69;64.22;99533.02;217938;1257;126022;-79
2024/02/27 13:05:32;;;;;;;16.60;11.20;;;;;;;16.68;64.19;99531.74;217746;1259;140888;-78
2024/02/27 13:10:38;;;;;;;13.00;11.30;;;;;;;16.69;64.05;99532.21;218185;1256;140652;-76
2024/02/27 13:15:52;;;;;;;17.10;10.80;;;;;;;16.74;63.83;99531.27;218283;1259;139443;-79
2024/02/27 13:21:02;;;;;;;14.30;11.10;;;;;;;16.66;63.54;99530.18;217388;1260;139912;-78
2024/02/27 13:26:10;;;;;;;16.20;11.90;;;;;;;16.57;63.52;99524.02;217606;1257;140770;-79
2024/02/27 13:31:16;;;;;;;17.60;12.00;;;;;;;16.40;63.50;99529.36;218112;1257;140967;-77
2024/02/27 13:36:22;;;;;;;13.90;11.20;;;;;;;16.31;63.71;99533.98;218260;1255;139802;-77
2024/02/27 13:41:30;;;;;;;18.70;11.60;;;;;;;16.16;63.69;99528.45;218134;1256;140339;-77
2024/02/27 13:46:43;;;;;;;13.20;11.40;;;;;;;16.05;63.67;99528.29;218024;1260;139412;-79
2024/02/27 13:51:51;;;;;;;15.30;12.00;;;;;;;16.09;63.80;99526.93;217771;1257;141593;-78
2024/02/27 13:56:56;;;;;;;14.00;10.90;;;;;;;16.18;63.82;99523.13;218111;1256;139358;-79
2024/02/27 14:02:07;;;;;;;13.60;11.30;;;;;;;16.27;63.78;99527.10;217659;1257;140666;-78
2024/02/27 14:07:15;;;;;;;14.80;10.50;;;;;;;16.37;63.52;99526.03;218746;1255;140607;-79
2024/02/27 14:12:21;;;;;;;14.60;11.10;;;;;;;16.47;63.47;99529.91;217550;1256;139867;-75
2024/02/27 14:17:26;;;;;;;13.60;12.10;;;;;;;16.43;62.95;99537.20;219060;1256;140723;-77
2024/02/27 14:22:41;;;;;;;15.90;10.60;;;;;;;16.35;62.72;99540.84;217803;1258;141645;-81
2024/02/27 14:27:47;;;;;;;14.70;10.50;;;;;;;16.22;62.69;99544.77;217853;1256;140567;-76
2024/02/27 14:32:51;;;;;;;15.10;11.60;;;;;;;16.17;62.95;99543.95;217996;1260;143857;-77
2024/02/27 14:37:57;;;;;;;;;;;;;;;16.11;63.28;99547.79;217429;1258;140436;-76
2024/02/27 14:43:05;;;;;;;17.50;11.30;;;;;;;15.98;63.30;99552.98;219004;1255;127096;-76
2024/02/27 14:48:19;;;;;;;14.80;10.90;;;;;;;15.85;63.24;99557.02;217652;1256;141394;-75
2024/02/27 14:53:30;;;;;;;19.60;11.50;;;;;;;15.71;63.50;99556.63;217747;1256;139654;-76
2024/02/27 14:58:35;;;;;;;15.50;12.00;;;;;;;15.57;63.64;99561.64;217618;1256;139168;-76
2024/02/27 15:03:38;;;;;;;14.80;11.10;;;;;;;15.42;63.92;99564.05;217883;1257;139970;-78
2024/02/27 15:08:43;;;;;;;14.30;11.50;;;;;;;15.32;64.26;99570.52;217379;1257;140536;-77
2024/02/27 15:13:47;;;;;;;16.00;11.70;;;;;;;15.22;64.52;99570.10;218595;1259;140350;-76
2024/02/27 15:18:55;;;;;;;16.90;11.90;;;;;;;15.09;64.79;99570.04;217706;1256;139564;-76
2024/02/27 15:24:01;;;;;;;17.50;11.00;;;;;;;14.96;65.04;99574.75;217848;1255;139267;-75
2024/02/27 15:29:05;;;;;;;16.80;10.70;;;;;;;14.80;65.21;99571.55;217788;1256;139958;-75
2024/02/27 15:34:13;;;;;;;15.80;12.40;;;;;;;14.63;65.38;99577.81;217680;1256;139440;-74
2024/02/27 15:39:17;;;;;;;15.30;12.40;;;;;;;14.44;65.59;99575.88;217571;1256;139267;-74
2024/02/27 15:44:22;;;;;;;19.80;12.50;;;;;;;14.31;65.94;99579.20;217813;1256;140565;-73
2024/02/27 15:49:26;;;;;;;19.00;14.00;;;;;;;14.18;66.08;99586.11;217691;1258;141658;-74
2024/02/27 15:54:30;;;;;;;19.20;12.90;;;;;;;14.06;66.15;99587.81;217693;1256;141443;-73
2024/02/27 15:59:33;;;;;;;16.10;10.90;;;;;;;13.91;66.35;99592.35;217675;1255;140700;-75
2024/02/27 16:04:54;;;;;;;19.00;12.90;;;;;;;13.74;66.47;99591.94;218159;1256;141402;-76
2024/02/27 16:10:02;;;;;;;16.20;11.90;;;;;;;13.54;66.58;99594.65;217866;1256;140669;-74
2024/02/27 16:15:06;;;;;;;15.30;11.40;;;;;;;13.35;66.85;99604.14;218901;1255;140432;-74
2024/02/27 16:20:11;;;;;;;21.50;12.10;;;;;;;13.20;67.04;99610.76;217798;1254;140135;-76
2024/02/27 16:25:15;;;;;;;18.10;11.30;;;;;;;13.02;67.32;99618.88;217724;1259;140877;-73
2024/02/27 16:30:19;;;;;;;16.90;12.70;;;;;;;12.80;67.53;99628.18;217752;1256;139972;-74
2024/02/27 16:35:25;;;;;;;20.40;14.00;;;;;;;12.59;67.69;99623.24;217544;1259;140808;-74
2024/02/27 16:40:29;;;;;;;20.80;14.10;;;;;;;12.39;67.79;99629.37;217476;1258;142377;-74
2024/02/27 16:45:33;;;;;;;18.00;13.40;;;;;;;12.19;68.39;99637.57;217769;1259;139875;-73
2024/02/27 16:50:37;;;;;;;22.30;12.10;;;;;;;11.99;68.66;99643.17;217751;1258;140687;-75
2024/02/27 16:55:41;;;;;;;22.70;13.20;;;;;;;11.66;68.28;99652.92;217609;1256;141778;-74
2024/02/27 17:00:45;;;;;;;18.20;12.50;;;;;;;11.39;69.25;99659.20;218467;1255;140361;-73
2024/02/27 17:05:49;;;;;;;16.80;13.20;;;;;;;11.26;70.14;99650.20;217785;1256;141201;-75
2024/02/27 17:10:55;;;;;;;18.40;11.70;;;;;;;11.17;70.40;99656.23;217840;1259;140135;-75
2024/02/27 17:15:59;;;;;;;16.10;12.20;;;;;;;11.10;70.64;99651.94;217809;1259;140153;-75
2024/02/27 17:21:04;;;;;;;22.80;12.50;;;;;;;11.02;70.93;99658.36;217933;1257;141514;-73
2024/02/27 17:26:12;;;;;;;18.50;11.90;;;;;;;10.89;71.16;99655.93;217659;1256;140387;-76
2024/02/27 17:31:17;;;;;;;22.60;12.80;;;;;;;10.78;71.60;99661.67;217880;1255;140229;-75
2024/02/27 17:36:23;;;;;;;19.10;12.80;;;;;;;10.70;71.77;99662.98;217619;1256;139882;-75
2024/02/27 17:41:28;;;;;;;18.10;13.30;;;;;;;10.62;72.05;99664.63;217864;1256;140654;-73
2024/02/27 17:46:35;;;;;;;16.90;11.70;;;;;;;10.47;72.26;99660.85;217909;1256;141174;-72
2024/02/27 17:51:41;;;;;;;23.50;13.00;;;;;;;10.37;72.57;99663.96;219834;1255;140079;-73
2024/02/27 17:56:46;;;;;;;20.50;12.60;;;;;;;10.29;72.93;99662.95;217829;1256;139900;-73
2024/02/27 18:01:53;;;;;;;16.30;12.80;;;;;;;10.19;72.92;99662.70;217967;1259;140524;-73
2024/02/27 18:06:58;;;;;;;18.90;13.20;;;;;;;10.06;73.24;99662.75;217590;1255;141411;-73
2024/02/27 18:12:02;;;;;;;17.70;13.20;;;;;;;9.96;73.22;99664.05;217431;1256;141231;-76
2024/02/27 18:17:06;;;;;;;18.20;12.60;;;;;;;9.86;73.48;99665.48;217712;1256;140298;-74
2024/02/27 18:22:12;;;;;;;20.90;12.20;;;;;;;9.75;73.75;99664.66;218220;1257;140219;-78
2024/02/27 18:27:20;;;;;;;23.30;14.20;;;;;;;9.51;73.67;99665.30;217570;1256;140816;-76
2024/02/27 18:32:24;;;;;;;17.70;12.90;;;;;;;9.39;74.48;99657.84;217570;1256;139873;-75
2024/02/27 18:37:29;;;;;;;27.10;15.20;;;;;;;9.33;74.57;99658.63;217464;1259;141657;-75
2024/02/27 18:42:33;;;;;;;32.30;17.30;;;;;;;9.20;74.47;99665.70;217602;1256;140293;-75
2024/02/27 18:47:38;;;;;;;36.80;20.60;;;;;;;9.11;74.85;99666.82;218250;1257;139815;-75
2024/02/27 18:52:46;;;;;;;38.00;20.30;;;;;;;9.02;74.87;99665.08;217752;1255;141234;-74
2024/02/27 18:57:51;;;;;;;41.80;20.10;;;;;;;8.88;74.99;99670.83;217642;1259;141372;-74
2024/02/27 19:02:55;;;;;;;39.90;23.20;;;;;;;8.71;74.76;99675.94;217391;1256;141491;-75
2024/02/27 19:07:59;;;;;;;40.10;23.00;;;;;;;8.59;75.38;99675.39;217475;1255;141172;-74
2024/02/27 19:13:06;;;;;;;43.60;26.10;;;;;;;8.45;75.35;99683.78;217609;1256;140569;-74
2024/02/27 19:18:16;;;;;;;48.00;25.20;;;;;;;8.35;75.83;99684.09;217604;1255;140909;-74
2024/02/27 19:23:20;;;;;;;54.40;24.20;;;;;;;8.29;75.96;99683.89;217582;1255;141075;-74
2024/02/27 19:28:24;;;;;;;42.40;23.00;;;;;;;8.23;76.35;99688.63;217967;1256;140356;-74
2024/02/27 19:33:29;;;;;;;44.40;21.90;;;;;;;8.13;76.25;99695.17;217166;1260;451595;-75
2024/02/27 19:38:35;;;;;;;33.00;21.20;;;;;;;8.06;76.91;99698.17;217451;1260;142305;-76
2024/02/27 19:43:39;;;;;;;36.40;20.20;;;;;;;7.99;76.73;99690.27;217926;1256;140140;-74
2024/02/27 19:48:45;;;;;;;34.50;21.50;;;;;;;7.90;77.43;99699.36;217499;1255;140336;-74
2024/02/27 19:53:52;;;;;;;36.60;21.60;;;;;;;7.83;77.02;99704.80;218662;1256;141038;-74
2024/02/27 19:58:57;;;;;;;44.80;27.90;;;;;;;7.68;77.19;99712.27;218578;1255;141350;-75
2024/02/27 20:04:00;;;;;;;35.30;22.40;;;;;;;7.62;78.05;99705.67;220237;1255;141407;-74
2024/02/27 20:09:07;;;;;;;31.80;22.80;;;;;;;7.53;77.59;99706.18;219896;1255;140903;-74
2024/02/27 20:14:11;;;;;;;36.40;22.00;;;;;;;7.46;77.88;99707.90;217562;1256;140218;-74
2024/02/27 20:19:16;;;;;;;39.10;23.50;;;;;;;7.38;77.99;99708.33;217563;1256;140802;-73
2024/02/27 20:24:22;;;;;;;41.00;23.70;;;;;;;7.28;77.96;99707.41;217436;1257;140321;-75
2024/02/27 20:29:30;;;;;;;36.20;24.30;;;;;;;7.17;78.77;99709.61;217846;1256;140500;-74
2024/02/27 20:34:54;;;;;;;40.40;28.80;;;;;;;7.10;78.64;99726.65;218442;1255;245128;-74
2024/02/27 20:39:57;;;;;;;36.70;23.40;;;;;;;7.07;79.01;99719.08;217434;1256;139717;-74
2024/02/27 20:45:02;;;;;;;45.90;28.30;;;;;;;7.03;79.28;99719.02;217671;1259;141021;-73
2024/02/27 20:50:10;;;;;;;48.70;29.20;;;;;;;6.93;79.06;99715.21;217615;1260;139966;-73
2024/02/27 20:55:16;;;;;;;40.10;26.00;;;;;;;6.88;79.96;99723.34;217605;1256;140842;-73
2024/02/27 21:00:21;;;;;;;45.10;27.60;;;;;;;6.93;80.54;99719.60;217527;1256;141296;-74
2024/02/27 21:05:25;;;;;;;42.70;29.90;;;;;;;6.95;80.33;99720.86;217402;1256;140410;-75
2024/02/27 21:10:30;;;;;;;54.60;31.70;;;;;;;6.97;81.09;99726.45;217379;1256;139879;-75
2024/02/27 21:15:34;;;;;;;55.70;35.70;;;;;;;7.05;81.34;99724.71;217538;1260;140711;-74
2024/02/27 21:20:43;;;;;;;46.70;29.50;;;;;;;7.15;81.83;99714.80;217477;1256;140089;-74
2024/02/27 21:25:48;;;;;;;53.40;33.10;;;;;;;7.20;81.59;99717.06;217434;1255;140643;-75
2024/02/27 21:30:52;;;;;;;58.50;37.20;;;;;;;7.26;82.08;99714.87;217567;1260;140094;-74
2024/02/27 21:35:57;;;;;;;69.30;37.00;;;;;;;7.32;82.56;99716.30;217628;1256;139634;-75
2024/02/27 21:41:01;;;;;;;81.10;46.30;;;;;;;7.39;82.96;99719.16;217599;1256;139833;-75
2024/02/27 21:46:07;;;;;;;77.80;43.80;;;;;;;7.47;83.23;99728.05;217764;1256;139747;-74
2024/02/27 21:51:12;;;;;;;76.70;46.20;;;;;;;7.56;83.70;99729.30;217900;1256;139956;-74
2024/02/27 21:56:16;;;;;;;79.20;43.90;;;;;;;7.65;84.21;99730.70;220357;1256;140457;-75
2024/02/27 22:01:22;;;;;;;77.10;45.30;;;;;;;7.73;84.26;99731.81;220130;1256;140233;-76
2024/02/27 22:06:27;;;;;;;70.20;40.80;;;;;;;7.83;84.57;99731.02;219883;1256;140315;-77
2024/02/27 22:11:32;;;;;;;81.70;47.50;;;;;;;7.88;84.52;99738.95;217745;1256;139969;-74
2024/02/27 22:16:39;;;;;;;82.70;47.30;;;;;;;7.95;84.57;99740.84;217550;1256;140684;-74
2024/02/27 22:21:45;;;;;;;81.10;44.40;;;;;;;8.01;84.92;99745.48;217390;1260;139981;-74
2024/02/27 22:26:50;;;;;;;82.50;44.80;;;;;;;8.04;85.15;99754.88;217429;1260;139740;-75
2024/02/27 22:31:58;;;;;;;73.90;42.30;;;;;;;8.07;85.23;99770.21;217544;1259;139714;-74
2024/02/27 22:37:03;;;;;;;76.40;44.30;;;;;;;8.06;85.44;99773.77;217681;1256;140035;-76
2024/02/27 22:42:08;;;;;;;77.60;44.80;;;;;;;8.02;85.74;99764.33;217441;1256;140532;-76
2024/02/27 22:47:11;;;;;;;93.70;51.20;;;;;;;8.00;86.07;99750.50;217524;1260;140285;-76
2024/02/27 22:52:16;;;;;;;88.60;46.60;;;;;;;8.03;86.36;99746.19;217579;1259;140673;-75
2024/02/27 22:57:20;;;;;;;89.60;56.00;;;;;;;8.07;86.64;99737.09;217637;1257;140512;-74
2024/02/27 23:02:25;;;;;;;87.50;46.90;;;;;;;8.12;86.87;99736.64;217699;1256;140417;-75